Time;durP1;ratioP1;P1;durP2;ratioP2;P2;SDS_P1;SDS_P2;PMS_P1;PMS_P2;Temp;Humidity;BMP_temperature;BMP_pressure;BME280_temperature;BME280_humidity;BME280_pressure;Samples;Min_cycle;Max_cycle;Signal;HPM_P1;HPM_P2
2023/07/16 00:00:08;;;;;;;2.42;1.75;;;19.30;99.90;;;;;;4936551;29;20031;-78
2023/07/16 00:02:34;;;;;;;3.38;1.98;;;19.30;99.90;;;;;;4929357;29;20043;-78
2023/07/16 00:05:00;;;;;;;2.65;1.95;;;19.20;99.90;;;;;;4938264;29;20035;-78
2023/07/16 00:07:27;;;;;;;6.80;2.63;;;19.20;99.90;;;;;;4945605;29;20038;-78
2023/07/16 00:09:53;;;;;;;4.15;1.92;;;19.30;99.90;;;;;;4937431;29;20043;-78
2023/07/16 00:12:19;;;;;;;3.72;2.33;;;19.30;99.90;;;;;;4900165;29;20040;-79
2023/07/16 00:14:45;;;;;;;3.95;1.98;;;19.30;99.90;;;;;;4936327;29;20032;-77
2023/07/16 00:17:11;;;;;;;4.18;2.03;;;19.30;99.90;;;;;;4922255;29;20048;-78
2023/07/16 00:19:37;;;;;;;3.65;2.42;;;19.30;99.90;;;;;;4930385;29;20048;-78
2023/07/16 00:22:04;;;;;;;4.68;2.15;;;19.30;99.90;;;;;;4935013;29;20079;-77
2023/07/16 00:24:30;;;;;;;3.97;2.70;;;19.30;99.90;;;;;;4928212;29;20467;-79
2023/07/16 00:26:56;;;;;;;3.95;2.03;;;19.30;99.90;;;;;;4923936;29;20399;-79
2023/07/16 00:29:23;;;;;;;3.13;1.92;;;19.30;99.90;;;;;;4940716;29;20043;-78
2023/07/16 00:31:49;;;;;;;3.28;1.58;;;19.40;99.90;;;;;;4936402;29;20047;-78
2023/07/16 00:34:16;;;;;;;4.65;2.13;;;19.30;99.90;;;;;;4920383;29;20043;-78
2023/07/16 00:36:42;;;;;;;4.75;1.70;;;19.30;99.90;;;;;;4940101;29;20031;-78
2023/07/16 00:39:09;;;;;;;4.45;2.30;;;19.20;99.90;;;;;;4944029;29;20395;-77
2023/07/16 00:41:35;;;;;;;2.17;1.42;;;19.30;99.90;;;;;;4933951;29;20502;-78
2023/07/16 00:44:01;;;;;;;2.33;2.10;;;19.20;99.90;;;;;;4934733;29;20391;-79
2023/07/16 00:46:28;;;;;;;2.33;1.40;;;19.20;99.90;;;;;;4923994;29;20028;-78
2023/07/16 00:48:54;;;;;;;2.58;1.33;;;19.10;99.90;;;;;;4931427;29;20047;-77
2023/07/16 00:51:25;;;;;;;2.10;1.50;;;19.10;99.90;;;;;;4924507;29;20044;-77
2023/07/16 00:53:52;;;;;;;1.80;1.15;;;19.10;99.90;;;;;;4937308;29;20051;-83
2023/07/16 00:56:19;;;;;;;2.83;1.88;;;19.10;99.90;;;;;;4920109;29;20036;-79
2023/07/16 00:58:45;;;;;;;3.88;2.33;;;19.10;99.90;;;;;;4916477;29;20050;-78
2023/07/16 01:01:11;;;;;;;3.90;2.25;;;19.10;99.90;;;;;;4938399;29;20047;-79
2023/07/16 01:03:38;;;;;;;5.05;2.08;;;19.10;99.90;;;;;;4937045;29;20031;-79
2023/07/16 01:06:20;;;;;;;2.95;1.40;;;19.10;99.90;;;;;;4943170;29;20047;-80
2023/07/16 01:08:59;;;;;;;6.45;2.28;;;19.10;99.90;;;;;;4919157;29;20047;-81
2023/07/16 01:11:27;;;;;;;2.08;1.20;;;19.10;99.90;;;;;;4938599;29;20043;-81
2023/07/16 01:13:54;;;;;;;2.03;0.90;;;19.00;99.90;;;;;;4939275;29;20411;-87
2023/07/16 01:16:22;;;;;;;2.97;1.10;;;18.90;99.90;;;;;;4946355;29;20044;-83
2023/07/16 01:18:51;;;;;;;2.15;1.02;;;18.90;99.90;;;;;;4929311;29;20044;-82
2023/07/16 01:21:19;;;;;;;2.17;1.08;;;18.90;99.90;;;;;;4948026;29;20035;-81
2023/07/16 01:23:51;;;;;;;4.22;1.27;;;18.90;99.90;;;;;;4953694;29;20039;-83
2023/07/16 01:26:26;;;;;;;1.65;0.98;;;18.80;99.70;;;;;;4946430;29;20463;-84
2023/07/16 01:29:05;;;;;;;2.30;1.25;;;18.80;99.90;;;;;;4927539;29;20043;-85
2023/07/16 01:31:33;;;;;;;2.80;1.48;;;18.80;99.90;;;;;;4934249;29;20047;-82
2023/07/16 01:34:01;;;;;;;2.50;1.80;;;18.80;99.90;;;;;;4945778;29;20055;-82
2023/07/16 01:36:28;;;;;;;2.88;1.50;;;18.70;99.90;;;;;;4945157;29;20035;-82
2023/07/16 01:38:55;;;;;;;3.13;1.38;;;18.80;99.90;;;;;;4939700;29;20043;-87
2023/07/16 01:41:21;;;;;;;3.35;1.92;;;18.80;99.90;;;;;;4918897;29;20059;-86
2023/07/16 01:43:47;;;;;;;5.15;1.63;;;18.80;99.90;;;;;;4939922;29;20031;-84
2023/07/16 01:46:13;;;;;;;3.40;1.77;;;18.80;99.90;;;;;;4937188;29;20517;-83
2023/07/16 01:48:40;;;;;;;2.22;1.30;;;18.80;99.90;;;;;;4914739;29;20059;-82
2023/07/16 01:51:06;;;;;;;4.50;1.80;;;18.80;99.90;;;;;;4928268;29;20059;-80
2023/07/16 01:53:33;;;;;;;2.83;1.48;;;18.80;99.90;;;;;;4936446;29;20059;-86
2023/07/16 01:56:01;;;;;;;2.65;1.55;;;18.80;99.90;;;;;;4940377;29;20046;-83
2023/07/16 01:58:28;;;;;;;2.17;1.00;;;18.80;99.90;;;;;;4927350;29;20051;-81
2023/07/16 02:00:55;;;;;;;2.38;1.25;;;18.80;82.40;;;;;;4939822;29;20091;-82
2023/07/16 02:03:21;;;;;;;3.35;1.80;;;18.80;72.60;;;;;;4932414;29;20047;-82
2023/07/16 02:05:48;;;;;;;2.53;1.25;;;18.70;71.00;;;;;;4921752;29;20043;-83
2023/07/16 02:08:14;;;;;;;2.35;1.00;;;18.70;62.30;;;;;;4934392;29;20032;-82
2023/07/16 02:10:40;;;;;;;3.55;1.30;;;18.70;49.00;;;;;;4940504;29;20036;-82
2023/07/16 02:13:06;;;;;;;2.90;0.82;;;18.70;13.20;;;;;;4930314;29;20039;-82
2023/07/16 02:15:32;;;;;;;3.80;1.02;;;18.60;1.00;;;;;;4936993;29;20395;-82
2023/07/16 02:17:59;;;;;;;2.85;0.82;;;18.60;1.00;;;;;;4939643;29;20034;-81
2023/07/16 02:20:25;;;;;;;2.03;0.98;;;18.60;1.00;;;;;;4939233;29;20039;-81
2023/07/16 02:22:52;;;;;;;2.13;0.95;;;18.60;1.00;;;;;;4905035;29;20051;-82
2023/07/16 02:25:18;;;;;;;5.97;1.10;;;18.60;1.00;;;;;;4908804;29;20040;-81
2023/07/16 02:27:47;;;;;;;4.10;0.90;;;18.50;1.00;;;;;;4915547;29;20357;-79
2023/07/16 02:30:16;;;;;;;2.35;1.00;;;18.50;1.00;;;;;;4920267;29;20050;-80
2023/07/16 02:32:43;;;;;;;2.67;0.85;;;18.40;1.00;;;;;;4921292;29;20076;-79
2023/07/16 02:35:10;;;;;;;4.18;1.48;;;18.40;1.00;;;;;;4931430;29;20064;-79
2023/07/16 02:37:36;;;;;;;2.13;1.42;;;18.40;1.00;;;;;;4923767;29;20395;-79
2023/07/16 02:40:03;;;;;;;2.60;1.13;;;18.30;1.00;;;;;;4939774;29;20042;-79
2023/07/16 02:42:29;;;;;;;2.78;1.52;;;18.30;1.00;;;;;;4900841;29;20059;-79
2023/07/16 02:44:55;;;;;;;1.75;0.73;;;18.30;1.00;;;;;;4935534;29;20046;-80
2023/07/16 02:47:21;;;;;;;1.45;0.80;;;18.30;1.00;;;;;;4923011;29;20050;-80
2023/07/16 02:49:53;;;;;;;2.40;1.08;;;18.20;1.00;;;;;;4939071;29;20043;-79
2023/07/16 02:52:19;;;;;;;2.70;1.20;;;18.20;1.00;;;;;;4930148;29;20035;-79
2023/07/16 02:54:45;;;;;;;5.38;1.33;;;18.10;1.00;;;;;;4930568;29;20060;-80
2023/07/16 02:57:11;;;;;;;3.08;1.40;;;18.10;1.00;;;;;;4931528;29;20036;-80
2023/07/16 02:59:38;;;;;;;2.75;1.00;;;18.10;1.00;;;;;;4924009;29;20052;-79
2023/07/16 03:02:04;;;;;;;1.70;1.00;;;18.10;1.00;;;;;;4917584;29;20040;-80
2023/07/16 03:04:30;;;;;;;2.20;0.90;;;18.00;1.00;;;;;;4938265;29;20395;-80
2023/07/16 03:06:56;;;;;;;3.58;1.30;;;17.90;1.00;;;;;;4944389;29;20038;-79
2023/07/16 03:09:22;;;;;;;2.78;0.82;;;17.90;1.00;;;;;;4941272;29;20047;-77
2023/07/16 03:11:49;;;;;;;2.85;0.93;;;17.90;1.00;;;;;;4934088;29;20031;-78
2023/07/16 03:14:15;;;;;;;2.88;1.25;;;17.90;1.00;;;;;;4936857;29;20036;-77
2023/07/16 03:16:41;;;;;;;4.28;1.58;;;17.90;1.00;;;;;;4944519;29;20459;-78
2023/07/16 03:19:09;;;;;;;2.80;1.02;;;17.90;1.00;;;;;;4916497;29;20494;-78
2023/07/16 03:21:35;;;;;;;4.50;1.30;;;17.80;1.00;;;;;;4918574;29;20044;-79
2023/07/16 03:24:02;;;;;;;4.75;1.55;;;17.70;1.00;;;;;;4924754;29;20048;-80
2023/07/16 03:26:28;;;;;;;4.85;1.02;;;17.70;1.00;;;;;;4902143;29;20059;-78
2023/07/16 03:28:55;;;;;;;5.97;1.55;;;17.70;99.90;;;;;;4927246;29;20043;-79
2023/07/16 03:31:22;;;;;;;4.55;1.60;;;17.70;99.90;;;;;;4921408;29;20048;-77
2023/07/16 03:33:49;;;;;;;4.72;1.73;;;17.70;99.90;;;;;;4923480;29;20043;-76
2023/07/16 03:36:18;;;;;;;6.65;1.42;;;17.60;99.90;;;;;;4921395;29;20055;-77
2023/07/16 03:38:44;;;;;;;2.55;1.23;;;17.60;99.90;;;;;;4939832;29;20466;-78
2023/07/16 03:41:11;;;;;;;5.25;1.25;;;17.50;99.90;;;;;;4922547;29;20044;-78
2023/07/16 03:43:37;;;;;;;2.05;1.00;;;17.50;99.90;;;;;;4934430;29;20051;-78
2023/07/16 03:46:16;;;;;;;6.15;1.25;;;17.50;99.90;;;;;;4925046;29;20047;-79
2023/07/16 03:48:42;;;;;;;3.90;1.35;;;17.60;99.90;;;;;;4915998;29;20051;-79
2023/07/16 03:51:09;;;;;;;2.28;1.10;;;17.60;99.90;;;;;;4922391;29;20043;-80
2023/07/16 03:53:35;;;;;;;3.03;1.10;;;17.60;99.90;;;;;;4938251;29;20067;-78
2023/07/16 03:56:01;;;;;;;2.78;1.35;;;17.60;99.90;;;;;;4914769;29;20061;-79
2023/07/16 03:58:29;;;;;;;3.78;1.13;;;17.50;99.90;;;;;;4922775;29;20035;-78
2023/07/16 04:00:55;;;;;;;8.02;1.40;;;17.50;99.90;;;;;;4938220;29;20028;-77
2023/07/16 04:03:22;;;;;;;3.00;0.85;;;17.60;99.90;;;;;;4917514;29;20048;-79
2023/07/16 04:05:48;;;;;;;4.43;2.03;;;17.50;1.00;;;;;;4918913;29;20043;-79
2023/07/16 04:08:15;;;;;;;2.10;1.13;;;17.60;1.00;;;;;;4929727;29;20036;-79
2023/07/16 04:10:41;;;;;;;5.32;1.13;;;17.50;1.00;;;;;;4937915;29;20063;-80
2023/07/16 04:13:07;;;;;;;3.78;1.73;;;17.60;99.90;;;;;;4933872;29;20039;-79
2023/07/16 04:15:33;;;;;;;1.98;0.82;;;17.60;99.90;;;;;;4941357;28;20039;-79
2023/07/16 04:18:00;;;;;;;5.05;1.23;;;17.60;99.90;;;;;;4928880;29;20039;-83
2023/07/16 04:20:27;;;;;;;3.35;1.33;;;17.60;99.90;;;;;;4929581;29;20040;-80
2023/07/16 04:22:53;;;;;;;4.28;1.35;;;17.60;99.90;;;;;;4932652;29;20050;-81
2023/07/16 04:25:19;;;;;;;2.92;1.25;;;17.70;99.90;;;;;;4934280;29;20040;-81
2023/07/16 04:27:45;;;;;;;2.90;0.90;;;17.70;99.90;;;;;;4925061;29;20040;-81
2023/07/16 04:30:11;;;;;;;1.60;0.82;;;17.70;99.90;;;;;;4916685;29;20098;-81
2023/07/16 04:32:37;;;;;;;6.60;1.63;;;17.90;99.90;;;;;;4926758;29;20047;-81
2023/07/16 04:35:04;;;;;;;2.80;1.27;;;18.00;99.90;;;;;;4937464;29;20031;-81
2023/07/16 04:37:30;;;;;;;1.50;0.73;;;18.20;99.90;;;;;;4909481;29;20031;-81
2023/07/16 04:39:56;;;;;;;2.65;1.40;;;18.40;99.90;;;;;;4912950;29;20044;-81
2023/07/16 04:42:22;;;;;;;3.78;1.00;;;18.40;99.90;;;;;;4938851;29;20054;-81
2023/07/16 04:44:48;;;;;;;3.90;1.17;;;18.30;99.90;;;;;;4933739;29;20483;-80
2023/07/16 04:47:15;;;;;;;5.78;1.42;;;18.30;99.90;;;;;;4928228;29;20035;-81
2023/07/16 04:49:41;;;;;;;4.35;1.52;;;18.20;99.90;;;;;;4943567;29;20070;-81
2023/07/16 04:52:07;;;;;;;2.38;0.98;;;18.10;99.90;;;;;;4936424;29;20039;-79
2023/07/16 04:54:37;;;;;;;2.05;0.93;;;18.20;99.90;;;;;;4934764;29;20415;-82
2023/07/16 04:57:05;;;;;;;3.58;1.10;;;18.10;99.90;;;;;;4933426;29;20040;-83
2023/07/16 04:59:31;;;;;;;3.38;0.90;;;18.10;99.90;;;;;;4911094;29;20036;-80
2023/07/16 05:01:57;;;;;;;6.90;1.55;;;18.00;99.90;;;;;;4932321;29;20032;-82
2023/07/16 05:04:23;;;;;;;5.03;1.65;;;18.00;99.90;;;;;;4926436;29;20036;-81
2023/07/16 05:06:51;;;;;;;4.13;0.70;;;18.50;99.90;;;;;;4933613;29;20054;-81
2023/07/16 05:09:17;;;;;;;4.03;1.05;;;19.00;99.90;;;;;;4926789;29;20039;-80
2023/07/16 05:11:43;;;;;;;4.93;1.20;;;19.20;99.90;;;;;;4935932;29;20093;-81
2023/07/16 05:14:10;;;;;;;3.03;1.25;;;19.60;99.90;;;;;;4935575;29;20032;-83
2023/07/16 05:16:36;;;;;;;2.85;1.17;;;19.60;99.90;;;;;;4934416;29;20370;-79
2023/07/16 05:19:02;;;;;;;4.53;1.25;;;19.90;99.90;;;;;;4940506;29;20044;-82
2023/07/16 05:21:28;;;;;;;4.57;1.05;;;19.90;99.90;;;;;;4933118;29;20090;-82
2023/07/16 05:23:55;;;;;;;3.90;1.08;;;20.30;90.00;;;;;;4923131;29;20367;-83
2023/07/16 05:26:21;;;;;;;4.38;1.48;;;20.30;45.50;;;;;;4918996;29;20039;-82
2023/07/16 05:28:47;;;;;;;1.20;0.60;;;20.30;99.90;;;;;;4929828;29;20028;-82
2023/07/16 05:31:13;;;;;;;2.35;1.42;;;20.60;90.50;;;;;;4915878;29;20040;-81
2023/07/16 05:33:39;;;;;;;6.70;1.63;;;21.00;88.70;;;;;;4916408;29;20043;-82
2023/07/16 05:36:05;;;;;;;3.33;1.00;;;21.30;37.60;;;;;;4925570;29;20378;-83
2023/07/16 05:38:31;;;;;;;4.05;1.00;;;21.30;1.00;;;;;;4921823;29;20055;-82
2023/07/16 05:41:02;;;;;;;3.20;0.93;;;21.50;78.00;;;;;;4923420;29;20043;-82
2023/07/16 05:43:29;;;;;;;3.53;1.15;;;21.30;13.50;;;;;;4930479;29;20040;-82
2023/07/16 05:45:55;;;;;;;2.40;0.88;;;21.40;1.00;;;;;;4926399;29;20039;-82
2023/07/16 05:48:21;;;;;;;3.17;0.93;;;21.20;1.00;;;;;;4917975;29;20035;-82
2023/07/16 05:50:47;;;;;;;3.42;1.35;;;21.30;1.00;;;;;;4930778;29;20495;-83
2023/07/16 05:53:13;;;;;;;3.13;1.42;;;20.90;1.00;;;;;;4911152;29;20076;-82
2023/07/16 05:55:40;;;;;;;3.90;1.08;;;21.10;1.00;;;;;;4909462;29;20048;-81
2023/07/16 05:58:06;;;;;;;5.70;1.38;;;21.00;1.00;;;;;;4922988;29;20388;-83
2023/07/16 06:00:42;;;;;;;2.97;1.40;;;21.10;1.00;;;;;;5058036;28;20403;-82
2023/07/16 06:03:08;;;;;;;4.60;0.80;;;21.90;1.00;;;;;;5045045;28;20044;-85
2023/07/16 06:05:36;;;;;;;5.57;1.00;;;22.00;1.00;;;;;;5044892;28;20040;-83
2023/07/16 06:08:03;;;;;;;2.95;1.20;;;21.90;99.90;;;;;;5045040;28;20382;-83
2023/07/16 06:10:29;;;;;;;6.60;1.17;;;21.50;1.00;;;;;;5043512;28;20405;-84
2023/07/16 06:12:55;;;;;;;3.80;1.08;;;21.50;1.00;;;;;;5042815;28;20040;-84
2023/07/16 06:15:21;;;;;;;6.07;1.10;;;21.60;1.00;;;;;;5044315;28;20036;-85
2023/07/16 06:17:47;;;;;;;5.97;1.38;;;21.70;99.90;;;;;;5043225;28;20431;-82
2023/07/16 06:20:13;;;;;;;2.35;0.90;;;21.80;99.90;;;;;;5043549;28;20335;-83
2023/07/16 06:22:39;;;;;;;3.78;1.02;;;21.90;99.90;;;;;;5044491;28;20470;-82
2023/07/16 06:25:10;;;;;;;2.55;1.30;;;21.60;99.90;;;;;;5046157;28;20036;-83
2023/07/16 06:27:36;;;;;;;2.50;0.95;;;21.10;99.90;;;;;;5043682;28;20033;-82
2023/07/16 06:30:03;;;;;;;3.20;1.23;;;20.90;1.00;;;;;;5040943;28;20049;-82
2023/07/16 06:32:30;;;;;;;2.53;1.05;;;21.10;99.90;;;;;;5041140;28;20048;-83
2023/07/16 06:34:56;;;;;;;3.72;1.25;;;21.20;99.90;;;;;;5045463;28;20037;-82
2023/07/16 06:37:23;;;;;;;4.28;1.20;;;21.60;99.90;;;;;;5045971;28;20052;-82
2023/07/16 06:39:50;;;;;;;7.43;1.10;;;21.50;99.90;;;;;;5056874;28;20049;-83
2023/07/16 06:42:16;;;;;;;4.03;1.25;;;21.40;99.90;;;;;;5043023;28;20045;-84
2023/07/16 06:44:42;;;;;;;4.13;1.33;;;21.40;99.90;;;;;;5049216;28;20368;-80
2023/07/16 06:47:08;;;;;;;9.32;1.08;;;21.00;99.90;;;;;;5045408;28;20467;-84
2023/07/16 06:49:34;;;;;;;2.45;1.25;;;21.30;99.90;;;;;;5057492;28;20033;-86
2023/07/16 06:52:04;;;;;;;2.97;1.10;;;21.70;99.90;;;;;;5049024;28;20037;-83
2023/07/16 06:54:30;;;;;;;7.37;1.33;;;21.60;99.90;;;;;;5058079;28;20033;-83
2023/07/16 06:56:56;;;;;;;8.65;1.50;;;21.80;99.90;;;;;;5043293;28;20272;-82
2023/07/16 06:59:22;;;;;;;5.05;1.52;;;21.90;99.90;;;;;;5042360;28;20053;-84
2023/07/16 07:01:48;;;;;;;2.83;1.10;;;21.70;99.90;;;;;;5045045;28;20466;-82
2023/07/16 07:04:14;;;;;;;3.45;1.00;;;21.80;99.90;;;;;;5043930;28;20029;-82
2023/07/16 07:06:41;;;;;;;3.25;1.05;;;21.90;99.90;;;;;;5046242;28;20037;-81
2023/07/16 07:09:07;;;;;;;6.07;1.42;;;22.00;99.90;;;;;;5046508;28;20512;-83
2023/07/16 07:11:33;;;;;;;4.82;1.17;;;22.20;99.90;;;;;;5031220;28;20033;-81
2023/07/16 07:13:59;;;;;;;3.70;1.23;;;21.70;99.90;;;;;;5031752;28;20045;-79
2023/07/16 07:16:25;;;;;;;4.07;1.30;;;21.90;99.90;;;;;;5030125;28;20482;-80
2023/07/16 07:18:51;;;;;;;3.42;1.23;;;22.00;99.90;;;;;;5027525;28;20038;-80
2023/07/16 07:21:17;;;;;;;4.10;1.23;;;22.10;99.90;;;;;;5026396;28;20064;-80
2023/07/16 07:23:43;;;;;;;4.70;1.30;;;22.50;99.90;;;;;;5030651;28;20037;-82
2023/07/16 07:26:10;;;;;;;4.07;1.65;;;22.70;99.90;;;;;;5029583;28;20030;-87
2023/07/16 07:28:36;;;;;;;5.32;1.52;;;22.90;99.90;;;;;;5029716;28;20053;-81
2023/07/16 07:31:02;;;;;;;4.38;1.50;;;22.90;99.90;;;;;;5027607;28;20034;-82
2023/07/16 07:33:28;;;;;;;4.60;1.60;;;22.80;98.80;;;;;;5031265;28;20033;-81
2023/07/16 07:35:57;;;;;;;3.55;1.10;;;22.50;99.90;;;;;;5030459;28;20030;-80
2023/07/16 07:38:23;;;;;;;4.05;1.67;;;22.50;99.90;;;;;;5029899;28;20140;-82
2023/07/16 07:40:49;;;;;;;4.03;1.60;;;22.70;84.90;;;;;;5031930;28;20470;-84
2023/07/16 07:43:16;;;;;;;3.15;1.38;;;22.50;96.90;;;;;;5030536;28;20061;-83
2023/07/16 07:45:43;;;;;;;3.65;1.35;;;22.40;60.10;;;;;;5031026;28;20037;-83
2023/07/16 07:48:09;;;;;;;2.42;1.33;;;22.50;99.90;;;;;;5030704;28;20025;-81
2023/07/16 07:50:35;;;;;;;5.97;1.58;;;22.30;99.90;;;;;;5027806;28;20045;-83
2023/07/16 07:53:02;;;;;;;3.20;0.90;;;22.60;71.50;;;;;;5033853;28;20032;-84
2023/07/16 07:55:28;;;;;;;3.55;1.38;;;22.50;59.40;;;;;;5029019;28;20408;-80
2023/07/16 07:57:54;;;;;;;7.13;1.60;;;22.70;92.80;;;;;;5030759;28;20042;-81
2023/07/16 08:00:20;;;;;;;3.17;1.35;;;22.90;72.70;;;;;;5026819;28;20486;-80
2023/07/16 08:02:47;;;;;;;5.30;0.90;;;22.70;55.00;;;;;;5034482;28;20041;-82
2023/07/16 08:05:13;;;;;;;3.90;1.20;;;22.80;72.70;;;;;;5029855;28;20044;-82
2023/07/16 08:07:39;;;;;;;5.13;1.35;;;22.90;60.90;;;;;;5042634;28;20030;-81
2023/07/16 08:10:05;;;;;;;4.47;1.48;;;22.90;45.30;;;;;;5028895;28;20048;-81
2023/07/16 08:12:32;;;;;;;4.03;1.63;;;22.20;74.90;;;;;;5027649;28;20253;-82
2023/07/16 08:14:58;;;;;;;3.28;1.05;;;22.00;91.10;;;;;;5028721;28;20041;-82
2023/07/16 08:17:24;;;;;;;3.08;1.25;;;22.00;96.20;;;;;;5029909;28;20033;-81
2023/07/16 08:19:50;;;;;;;3.13;1.55;;;21.80;86.10;;;;;;5030475;28;20375;-79
2023/07/16 08:22:16;;;;;;;5.85;1.67;;;21.70;66.70;;;;;;5029792;28;20037;-81
2023/07/16 08:24:43;;;;;;;3.83;1.50;;;21.80;90.70;;;;;;5026983;28;20454;-81
2023/07/16 08:27:09;;;;;;;5.63;1.73;;;21.90;66.60;;;;;;5030007;28;20029;-82
2023/07/16 08:29:36;;;;;;;6.78;1.77;;;22.20;73.60;;;;;;5026712;28;20033;-82
2023/07/16 08:32:03;;;;;;;5.35;1.77;;;22.50;33.20;;;;;;5031982;28;20029;-80
2023/07/16 08:34:29;;;;;;;4.80;1.98;;;22.70;35.00;;;;;;5027015;28;20059;-81
2023/07/16 08:36:58;;;;;;;2.75;1.35;;;23.10;3.40;;;;;;5028987;28;20029;-82
2023/07/16 08:39:24;;;;;;;6.30;1.30;;;23.00;14.40;;;;;;5027411;28;20045;-82
2023/07/16 08:41:51;;;;;;;4.90;1.30;;;23.70;18.10;;;;;;5029647;28;20061;-82
2023/07/16 08:44:17;;;;;;;2.65;1.20;;;23.70;1.00;;;;;;5024615;28;20057;-82
2023/07/16 08:46:44;;;;;;;2.30;0.73;;;24.40;1.00;;;;;;5027302;28;20030;-83
2023/07/16 08:49:11;;;;;;;2.33;1.10;;;24.10;1.00;;;;;;5028726;28;20152;-83
2023/07/16 08:51:39;;;;;;;2.13;1.17;;;23.90;1.00;;;;;;5026154;28;20037;-83
2023/07/16 08:54:05;;;;;;;2.85;1.02;;;23.90;1.00;;;;;;5025908;28;20052;-84
2023/07/16 08:56:32;;;;;;;2.83;1.38;;;23.80;1.00;;;;;;5027403;28;20609;-83
2023/07/16 08:58:59;;;;;;;4.63;1.05;;;23.60;1.00;;;;;;5025150;28;20084;-81
2023/07/16 09:01:25;;;;;;;3.65;1.23;;;23.50;1.00;;;;;;5031030;28;20041;-84
2023/07/16 09:03:52;;;;;;;2.35;1.13;;;23.50;1.00;;;;;;5028462;28;20044;-83
2023/07/16 09:06:18;;;;;;;2.40;0.75;;;24.00;1.00;;;;;;5023130;28;20416;-82
2023/07/16 09:08:44;;;;;;;1.98;0.85;;;24.30;1.00;;;;;;5026104;28;20030;-82
2023/07/16 09:11:13;;;;;;;4.43;1.63;;;24.10;1.00;;;;;;5027968;28;20378;-82
2023/07/16 09:13:45;;;;;;;2.72;1.02;;;24.20;1.00;;;;;;5028928;28;20038;-83
2023/07/16 09:16:12;;;;;;;3.55;1.30;;;23.40;1.00;;;;;;5027684;28;20517;-83
2023/07/16 09:18:40;;;;;;;3.92;1.08;;;23.90;1.00;;;;;;5026159;28;20041;-86
2023/07/16 09:21:07;;;;;;;2.95;1.02;;;24.40;1.00;;;;;;5026238;28;20046;-83
2023/07/16 09:23:33;;;;;;;2.25;1.08;;;25.00;1.00;;;;;;5028633;28;20040;-83
2023/07/16 09:25:59;;;;;;;2.33;1.27;;;24.80;1.00;;;;;;5024793;28;20030;-83
2023/07/16 09:28:26;;;;;;;2.35;1.23;;;24.60;1.00;;;;;;5024823;28;20490;-87
2023/07/16 09:30:52;;;;;;;4.50;1.15;;;24.60;1.00;;;;;;5025852;28;20508;-81
2023/07/16 09:33:22;;;;;;;3.45;1.20;;;24.70;1.00;;;;;;5027367;28;20497;-85
2023/07/16 09:35:49;;;;;;;4.03;1.73;;;24.80;1.00;;;;;;5030723;28;20034;-82
2023/07/16 09:38:16;;;;;;;5.63;1.63;;;24.70;1.00;;;;;;5026662;28;20383;-82
2023/07/16 09:40:42;;;;;;;4.35;1.70;;;24.60;1.00;;;;;;5028122;28;20038;-85
2023/07/16 09:43:09;;;;;;;2.25;0.88;;;25.30;1.00;;;;;;5027060;28;20030;-81
2023/07/16 09:45:36;;;;;;;6.95;1.40;;;25.10;1.00;;;;;;5028635;28;20120;-83
2023/07/16 09:48:03;;;;;;;4.82;1.85;;;25.50;1.00;;;;;;5025878;28;20037;-83
2023/07/16 09:50:33;;;;;;;4.22;1.30;;;26.20;1.00;;;;;;5027352;28;20050;-82
2023/07/16 09:52:59;;;;;;;5.22;1.50;;;26.20;99.90;;;;;;5010768;28;20060;-82
2023/07/16 09:55:26;;;;;;;3.20;1.00;;;26.10;99.90;;;;;;5013195;28;20030;-81
2023/07/16 09:57:58;;;;;;;3.10;1.40;;;26.20;99.90;;;;;;5012751;28;20034;-83
2023/07/16 10:00:25;;;;;;;4.47;1.02;;;25.30;1.00;;;;;;5006921;28;20049;-81
2023/07/16 10:02:52;;;;;;;1.95;1.08;;;24.90;1.00;;;;;;5017236;28;20042;-82
2023/07/16 10:05:22;;;;;;;4.82;1.75;;;24.20;1.00;;;;;;5012709;28;20037;-83
2023/07/16 10:07:58;;;;;;;4.03;1.13;;;24.10;1.00;;;;;;5024840;28;20037;-83
2023/07/16 10:10:53;;;;;;;3.08;1.38;;;24.00;1.00;;;;;;5015769;28;20045;-83
2023/07/16 10:13:23;;;;;;;3.95;1.58;;;23.80;1.00;;;;;;5023778;28;20044;-83
2023/07/16 10:15:55;;;;;;;5.15;1.55;;;23.60;1.00;;;;;;5013370;28;20503;-81
2023/07/16 10:18:25;;;;;;;3.33;1.33;;;23.50;1.00;;;;;;5017211;28;20029;-83
2023/07/16 10:20:51;;;;;;;;;;;23.50;1.00;;;;;;5017075;28;20042;-83
2023/07/16 10:23:18;;;;;;;3.08;1.25;;;23.60;1.00;;;;;;5013843;28;20002;-82
2023/07/16 10:26:09;;;;;;;2.85;1.33;;;23.70;1.00;;;;;;5013692;28;20034;-84
2023/07/16 10:28:36;;;;;;;4.05;1.60;;;24.20;1.00;;;;;;5000049;28;20050;-83
2023/07/16 10:31:03;;;;;;;4.68;1.35;;;24.20;1.00;;;;;;5016547;28;20422;-85
2023/07/16 10:33:29;;;;;;;4.20;1.27;;;23.90;1.00;;;;;;5012878;28;20431;-82
2023/07/16 10:35:58;;;;;;;2.83;1.30;;;24.30;1.00;;;;;;5013975;28;20034;-83
2023/07/16 10:38:25;;;;;;;2.55;0.90;;;24.10;1.00;;;;;;5007988;28;20395;-84
2023/07/16 10:40:51;;;;;;;3.28;1.60;;;23.90;1.00;;;;;;5012438;28;20048;-84
2023/07/16 10:43:18;;;;;;;2.92;1.20;;;24.20;1.00;;;;;;5011744;28;20034;-85
2023/07/16 10:45:47;;;;;;;5.10;1.35;;;24.60;1.00;;;;;;5018279;28;20041;-82
2023/07/16 10:48:13;;;;;;;5.50;1.05;;;25.10;1.00;;;;;;5017964;28;20037;-83
2023/07/16 10:50:39;;;;;;;5.00;1.98;;;24.90;1.00;;;;;;5016209;28;20048;-83
2023/07/16 10:53:05;;;;;;;7.50;1.60;;;24.10;1.00;;;;;;5017815;28;20383;-83
2023/07/16 10:55:37;;;;;;;6.47;1.30;;;24.20;1.00;;;;;;5017113;28;20511;-84
2023/07/16 10:58:08;;;;;;;3.28;0.93;;;24.90;1.00;;;;;;5020671;28;20029;-83
2023/07/16 11:00:38;;;;;;;3.92;1.27;;;25.40;99.90;;;;;;5015840;28;20054;-82
2023/07/16 11:03:05;;;;;;;5.22;1.33;;;25.90;99.90;;;;;;5019335;28;20033;-82
2023/07/16 11:05:31;;;;;;;3.40;1.05;;;25.50;99.90;;;;;;5023456;28;20033;-85
2023/07/16 11:07:57;;;;;;;3.33;1.25;;;25.60;99.90;;;;;;5016587;28;20037;-86
2023/07/16 11:10:25;;;;;;;6.40;1.13;;;25.80;99.90;;;;;;5016318;28;20049;-84
2023/07/16 11:12:55;;;;;;;3.97;1.30;;;26.00;99.90;;;;;;5019299;28;20037;-86
2023/07/16 11:15:33;;;;;;;4.00;1.40;;;26.20;99.90;;;;;;5018776;28;20037;-82
2023/07/16 11:17:59;;;;;;;5.93;1.73;;;26.20;99.90;;;;;;5017916;28;20034;-83
2023/07/16 11:20:25;;;;;;;2.20;0.88;;;25.90;99.90;;;;;;5018138;28;20034;-84
2023/07/16 11:22:51;;;;;;;3.00;1.38;;;25.40;99.90;;;;;;5014591;28;20025;-86
2023/07/16 11:25:19;;;;;;;4.07;1.50;;;25.20;99.90;;;;;;5014977;28;20045;-82
2023/07/16 11:27:46;;;;;;;2.05;1.40;;;25.30;99.90;;;;;;5017589;28;20037;-88
2023/07/16 11:30:12;;;;;;;4.95;1.23;;;25.50;99.90;;;;;;5016817;28;20046;-84
2023/07/16 11:32:48;;;;;;;3.88;1.10;;;26.00;99.90;;;;;;5015169;28;20189;-86
2023/07/16 11:35:21;;;;;;;3.17;1.23;;;26.20;99.90;;;;;;5018501;28;20029;-84
2023/07/16 11:37:47;;;;;;;4.07;1.58;;;26.10;99.90;;;;;;5019291;28;20041;-86
2023/07/16 11:40:19;;;;;;;3.95;1.42;;;25.70;99.90;;;;;;5017312;28;20037;-85
2023/07/16 11:42:45;;;;;;;1.70;0.98;;;25.50;99.90;;;;;;5020640;28;20034;-82
2023/07/16 11:45:26;;;;;;;4.95;1.15;;;25.80;99.90;;;;;;5019044;28;20041;-85
2023/07/16 11:47:53;;;;;;;4.15;1.45;;;26.20;99.90;;;;;;5020946;28;20037;-81
2023/07/16 11:50:19;;;;;;;6.18;1.48;;;26.20;99.90;;;;;;5013434;28;20030;-85
2023/07/16 11:52:56;;;;;;;3.08;0.82;;;26.00;99.90;;;;;;5020007;28;20033;-84
2023/07/16 11:55:23;;;;;;;5.00;1.00;;;26.10;99.90;;;;;;5013864;28;20041;-87
2023/07/16 11:57:49;;;;;;;3.35;1.70;;;26.10;99.90;;;;;;5019013;28;20049;-85
2023/07/16 12:00:17;;;;;;;3.72;1.33;;;26.10;99.90;;;;;;5016135;28;20053;-83
2023/07/16 12:02:50;;;;;;;3.17;1.52;;;26.10;99.90;;;;;;5018999;28;20060;-84
2023/07/16 12:05:21;;;;;;;3.83;1.48;;;26.50;99.90;;;;;;5013112;28;20034;-85
2023/07/16 12:07:47;;;;;;;3.55;1.00;;;26.70;99.90;;;;;;5016144;28;20037;-86
2023/07/16 12:10:14;;;;;;;1.65;0.73;;;26.80;99.90;;;;;;5016526;28;20382;-82
2023/07/16 12:12:40;;;;;;;2.92;1.33;;;26.90;99.90;;;;;;5017072;28;20053;-79
2023/07/16 12:15:08;;;;;;;4.90;1.50;;;26.90;99.90;;;;;;5020549;28;20049;-83
2023/07/16 12:17:35;;;;;;;3.22;1.15;;;26.70;99.90;;;;;;5018385;28;20034;-83
2023/07/16 12:20:03;;;;;;;2.78;1.45;;;26.20;99.90;;;;;;5017986;28;20394;-80
2023/07/16 12:22:30;;;;;;;2.70;1.40;;;25.40;99.90;;;;;;5017937;28;20030;-80
2023/07/16 12:24:56;;;;;;;2.85;1.20;;;25.20;99.90;;;;;;5018637;28;20390;-84
2023/07/16 12:27:22;;;;;;;5.38;1.38;;;25.10;99.90;;;;;;5013677;28;20029;-86
2023/07/16 12:29:48;;;;;;;3.67;1.58;;;25.40;99.90;;;;;;5013592;28;20061;-81
2023/07/16 12:32:15;;;;;;;3.45;1.92;;;25.90;99.90;;;;;;5001550;28;20030;-79
2023/07/16 12:34:42;;;;;;;4.68;1.27;;;26.30;99.90;;;;;;5013668;28;20026;-84
2023/07/16 12:37:08;;;;;;;4.03;0.98;;;26.50;99.90;;;;;;5016779;28;20048;-86
2023/07/16 12:39:34;;;;;;;3.63;1.20;;;26.80;99.90;;;;;;5023430;28;20034;-84
2023/07/16 12:42:01;;;;;;;2.08;1.00;;;26.90;99.90;;;;;;5020157;28;20056;-83
2023/07/16 12:44:27;;;;;;;2.72;1.45;;;26.70;99.90;;;;;;5017335;28;20037;-81
2023/07/16 12:46:53;;;;;;;2.92;1.15;;;26.40;99.90;;;;;;5031800;28;20372;-81
2023/07/16 12:49:19;;;;;;;2.42;1.25;;;26.00;99.90;;;;;;5013252;28;20041;-80